createdAt,value
2018-12-10T00:02:12.976Z,1.13
2018-12-10T00:04:40.404Z,1.10
2018-12-10T00:07:08.034Z,1.10
2018-12-10T00:09:35.446Z,0.80
2018-12-10T00:12:03.377Z,1.13
2018-12-10T00:14:30.971Z,0.80
2018-12-10T00:16:58.396Z,1.00
2018-12-10T00:19:25.809Z,0.83
2018-12-10T00:21:53.300Z,1.13
2018-12-10T00:24:21.021Z,1.17
2018-12-10T00:26:48.431Z,1.03
2018-12-10T00:29:15.923Z,0.90
2018-12-10T00:31:43.333Z,1.40
2018-12-10T00:34:10.753Z,0.97
2018-12-10T00:36:38.168Z,1.50
2018-12-10T00:39:06.973Z,1.93
2018-12-10T00:41:34.463Z,0.97
2018-12-10T00:44:02.015Z,0.80
2018-12-10T00:46:29.555Z,1.20
2018-12-10T00:48:56.976Z,0.90
2018-12-10T00:51:25.113Z,1.10
2018-12-10T00:53:52.648Z,1.20
2018-12-10T00:56:20.067Z,1.03
2018-12-10T00:58:47.703Z,0.70
2018-12-10T01:01:15.166Z,1.30
2018-12-10T01:03:42.572Z,0.70
2018-12-10T01:06:09.988Z,0.90
2018-12-10T01:08:37.403Z,0.80
2018-12-10T01:11:04.850Z,0.80
2018-12-10T01:13:32.793Z,0.80
2018-12-10T01:16:01.617Z,0.90
2018-12-10T01:18:29.043Z,1.03
2018-12-10T01:20:57.014Z,1.10
2018-12-10T01:23:24.432Z,1.13
2018-12-10T01:25:51.855Z,0.80
2018-12-10T01:28:19.288Z,0.93
2018-12-10T01:30:46.696Z,1.00
2018-12-10T01:33:14.799Z,1.30
2018-12-10T01:35:42.192Z,1.00
2018-12-10T01:38:09.610Z,1.17
2018-12-10T01:40:37.504Z,0.90
2018-12-10T01:43:04.921Z,1.00
2018-12-10T01:45:32.384Z,0.80
2018-12-10T01:47:59.880Z,1.00
2018-12-10T01:50:27.717Z,1.20
2018-12-10T01:52:55.192Z,1.43
2018-12-10T01:55:22.739Z,1.13
2018-12-10T01:57:51.084Z,1.43
2018-12-10T02:00:19.524Z,1.60
2018-12-10T02:02:46.997Z,1.13
2018-12-10T02:05:14.473Z,0.70
2018-12-10T02:07:41.893Z,1.43
2018-12-10T02:10:09.369Z,1.00
2018-12-10T02:12:36.822Z,0.90
2018-12-10T02:15:07.939Z,0.90
2018-12-10T02:17:35.357Z,1.23
2018-12-10T02:20:02.861Z,0.83
2018-12-10T02:22:30.353Z,1.47
2018-12-10T02:24:58.587Z,0.90
2018-12-10T02:27:26.025Z,1.27
2018-12-10T02:29:53.971Z,1.20
2018-12-10T02:32:24.585Z,1.37
2018-12-10T02:34:52.037Z,1.07
2018-12-10T02:37:19.878Z,0.97
2018-12-10T02:39:47.289Z,0.97
2018-12-10T02:42:14.699Z,0.90
2018-12-10T02:44:42.116Z,0.70
2018-12-10T02:47:09.545Z,0.70
2018-12-10T02:49:36.968Z,1.00
2018-12-10T02:52:04.492Z,0.80
2018-12-10T02:54:31.995Z,0.80
2018-12-10T02:56:59.487Z,1.00
2018-12-10T02:59:26.991Z,0.80
2018-12-10T03:01:55.289Z,2.13
2018-12-10T03:04:22.785Z,1.10
2018-12-10T03:06:50.275Z,1.27
2018-12-10T03:09:17.774Z,1.33
2018-12-10T03:11:45.901Z,1.00
2018-12-10T03:14:14.468Z,1.40
2018-12-10T03:16:42.825Z,1.00
2018-12-10T03:19:10.681Z,1.37
2018-12-10T03:21:38.092Z,0.97
2018-12-10T03:24:08.440Z,1.20
2018-12-10T03:26:36.497Z,1.30
2018-12-10T03:29:04.298Z,1.20
2018-12-10T03:31:31.962Z,1.27
2018-12-10T03:33:59.452Z,1.10
2018-12-10T03:36:26.953Z,1.00
2018-12-10T03:38:54.481Z,1.03
2018-12-10T03:41:22.028Z,1.37
2018-12-10T03:43:49.533Z,1.43
2018-12-10T03:46:16.944Z,1.23
2018-12-10T03:48:44.368Z,1.30
2018-12-10T03:51:11.851Z,1.47
2018-12-10T03:53:40.404Z,1.27
2018-12-10T03:56:07.854Z,1.50
2018-12-10T03:58:35.345Z,2.17
2018-12-10T04:01:02.924Z,1.63
2018-12-10T04:03:30.422Z,1.87
2018-12-10T04:05:57.837Z,2.47
2018-12-10T04:08:25.406Z,1.50
2018-12-10T04:10:52.886Z,1.20
2018-12-10T04:13:21.559Z,1.67
2018-12-10T04:15:49.110Z,1.80
2018-12-10T04:18:17.440Z,1.50
2018-12-10T04:20:45.338Z,1.37
2018-12-10T04:23:12.853Z,1.47
2018-12-10T04:25:40.273Z,1.60
2018-12-10T04:28:07.704Z,1.57
2018-12-10T04:30:35.175Z,1.30
2018-12-10T04:33:02.616Z,1.37
2018-12-10T04:35:30.521Z,1.70
2018-12-10T04:37:57.932Z,1.77
2018-12-10T04:40:25.345Z,1.70
2018-12-10T04:42:53.254Z,1.40
2018-12-10T04:45:20.705Z,1.90
2018-12-10T04:47:48.114Z,1.53
2018-12-10T04:50:15.606Z,1.53
2018-12-10T04:52:43.873Z,1.60
2018-12-10T04:55:12.908Z,2.13
2018-12-10T04:57:40.401Z,1.87
2018-12-10T05:00:08.516Z,1.90
2018-12-10T05:02:37.356Z,2.10
2018-12-10T05:05:04.965Z,1.80
2018-12-10T05:07:32.375Z,1.97
2018-12-10T05:09:59.793Z,1.53
2018-12-10T05:12:27.216Z,1.67
2018-12-10T05:14:54.630Z,1.30
2018-12-10T05:17:22.044Z,1.67
2018-12-10T05:19:50.246Z,1.33
2018-12-10T05:22:17.705Z,1.67
2018-12-10T05:24:45.168Z,1.20
2018-12-10T05:27:12.617Z,1.20
2018-12-10T05:29:41.426Z,0.90
2018-12-10T05:32:09.258Z,1.30
2018-12-10T05:34:36.679Z,1.10
2018-12-10T05:37:04.107Z,1.17
2018-12-10T05:39:31.611Z,1.20
2018-12-10T05:41:59.152Z,0.90
2018-12-10T05:44:26.571Z,0.80
2018-12-10T05:46:54.032Z,0.83
2018-12-10T05:49:21.476Z,0.80
2018-12-10T05:51:48.893Z,0.63
2018-12-10T05:54:16.316Z,0.70
2018-12-10T05:56:43.730Z,0.80
2018-12-10T05:59:11.145Z,0.60
2018-12-10T06:01:38.610Z,0.60
2018-12-10T06:04:06.260Z,0.90
2018-12-10T06:06:33.788Z,0.70
2018-12-10T06:09:01.257Z,0.80
2018-12-10T06:11:28.767Z,1.10
2018-12-10T06:13:56.491Z,1.00
2018-12-10T06:16:23.985Z,0.97
2018-12-10T06:18:51.664Z,1.33
2018-12-10T06:21:19.768Z,1.00
2018-12-10T06:23:53.767Z,1.33
2018-12-10T06:26:21.747Z,1.27
2018-12-10T06:28:49.237Z,1.13
2018-12-10T06:31:17.210Z,1.20
2018-12-10T06:33:45.432Z,0.97
2018-12-10T06:36:12.921Z,0.93
2018-12-10T06:38:40.339Z,1.33
2018-12-10T06:41:07.830Z,0.93
2018-12-10T06:43:35.267Z,1.20
2018-12-10T06:46:03.487Z,1.60
2018-12-10T06:48:31.921Z,1.43
2018-12-10T06:50:59.598Z,1.17
2018-12-10T06:53:27.104Z,1.57
2018-12-10T06:55:54.519Z,2.10
2018-12-10T06:58:22.902Z,1.63
2018-12-10T07:00:50.378Z,2.07
2018-12-10T07:03:17.796Z,1.90
2018-12-10T07:05:45.208Z,1.67
2018-12-10T07:08:13.005Z,1.60
2018-12-10T07:10:43.196Z,1.50
2018-12-10T07:13:10.613Z,1.80
2018-12-10T07:15:38.037Z,1.80
2018-12-10T07:18:05.500Z,1.97
2018-12-10T07:20:33.533Z,2.40
2018-12-10T07:23:00.945Z,1.90
2018-12-10T07:25:28.360Z,1.93
2018-12-10T07:27:55.772Z,1.90
2018-12-10T07:30:23.196Z,2.03
2018-12-10T07:32:51.260Z,1.70
2018-12-10T07:35:18.710Z,2.03
2018-12-10T07:37:46.676Z,1.50
2018-12-10T07:40:14.624Z,1.23
2018-12-10T07:42:42.535Z,1.40
2018-12-10T07:45:09.951Z,1.23
2018-12-10T07:47:37.376Z,1.23
2018-12-10T07:50:05.636Z,1.57
2018-12-10T07:52:33.022Z,1.60
2018-12-10T07:55:00.447Z,1.63
2018-12-10T07:57:28.437Z,1.53
2018-12-10T07:59:55.843Z,1.70
2018-12-10T08:02:23.325Z,2.27
2018-12-10T08:04:50.736Z,2.00
2018-12-10T08:07:18.528Z,2.57
2018-12-10T08:09:45.970Z,2.50
2018-12-10T08:12:13.377Z,2.17
2018-12-10T08:14:40.838Z,2.40
2018-12-10T08:17:08.323Z,2.00
2018-12-10T08:19:35.780Z,2.30
2018-12-10T08:22:05.664Z,2.30
2018-12-10T08:24:33.085Z,1.90
2018-12-10T08:27:00.508Z,1.93
2018-12-10T08:29:27.921Z,1.60
2018-12-10T08:31:55.660Z,1.57
2018-12-10T08:34:24.583Z,1.60
2018-12-10T08:36:52.308Z,1.40
2018-12-10T08:39:20.448Z,1.57
2018-12-10T08:41:48.191Z,1.10
2018-12-10T08:44:15.700Z,1.30
2018-12-10T08:46:43.108Z,1.70
2018-12-10T08:49:10.552Z,1.73
2018-12-10T08:51:37.976Z,1.70
2018-12-10T08:54:05.411Z,2.00
2018-12-10T08:56:34.378Z,1.50
2018-12-10T08:59:02.260Z,1.50
2018-12-10T09:01:29.694Z,1.43
2018-12-10T09:03:57.155Z,1.40
2018-12-10T09:06:24.645Z,1.50
2018-12-10T09:08:52.337Z,1.20
2018-12-10T09:11:19.758Z,1.50
2018-12-10T09:13:47.232Z,1.27
2018-12-10T09:16:14.683Z,1.40
2018-12-10T09:18:42.102Z,1.23
2018-12-10T09:21:09.516Z,1.50
2018-12-10T09:23:36.940Z,1.27
2018-12-10T09:26:04.368Z,1.40
2018-12-10T09:28:31.785Z,1.17
2018-12-10T09:30:59.205Z,1.43
2018-12-10T09:33:26.620Z,1.80
2018-12-10T09:35:54.033Z,1.57
2018-12-10T09:38:21.522Z,1.70
2018-12-10T09:40:48.965Z,1.87
2018-12-10T09:43:16.387Z,1.70
2018-12-10T09:45:44.295Z,1.40
2018-12-10T09:48:11.944Z,1.60
2018-12-10T09:50:39.384Z,1.80
2018-12-10T09:53:06.902Z,1.90
2018-12-10T09:55:34.340Z,1.27
2018-12-10T09:58:02.078Z,1.30
2018-12-10T10:00:29.541Z,1.27
2018-12-10T10:02:56.964Z,1.30
2018-12-10T10:05:24.413Z,1.63
2018-12-10T10:07:52.146Z,1.30
2018-12-10T10:10:19.556Z,1.50
2018-12-10T10:12:47.084Z,1.27
2018-12-10T10:15:14.572Z,0.90
2018-12-10T10:17:41.988Z,1.10
2018-12-10T10:20:09.567Z,1.00
2018-12-10T10:22:37.495Z,1.10
2018-12-10T10:25:05.255Z,1.40
2018-12-10T10:27:34.581Z,1.10
2018-12-10T10:30:02.148Z,1.03
2018-12-10T10:32:29.563Z,1.03
2018-12-10T10:34:56.980Z,1.10
2018-12-10T10:37:24.397Z,1.40
2018-12-10T10:39:52.210Z,0.90
2018-12-10T10:42:20.285Z,1.10
2018-12-10T10:44:48.144Z,1.00
2018-12-10T10:47:15.552Z,1.30
2018-12-10T10:49:42.965Z,1.47
2018-12-10T10:52:10.395Z,0.93
2018-12-10T10:54:39.665Z,1.03
2018-12-10T10:57:07.104Z,0.90
2018-12-10T10:59:34.552Z,1.00
2018-12-10T11:02:03.929Z,0.90
2018-12-10T11:04:37.661Z,0.80
2018-12-10T11:07:01.178Z,1.07
2018-12-10T11:09:28.565Z,0.97
2018-12-10T11:11:55.973Z,0.87
2018-12-10T11:14:23.491Z,0.90
2018-12-10T11:16:51.672Z,0.70
2018-12-10T11:19:19.089Z,1.20
2018-12-10T11:21:46.880Z,0.90
2018-12-10T11:24:14.832Z,0.90
2018-12-10T11:26:42.289Z,0.70
2018-12-10T11:29:10.130Z,1.43
2018-12-10T11:31:38.111Z,0.80
2018-12-10T11:34:06.041Z,1.00
2018-12-10T11:36:34.624Z,0.80
2018-12-10T11:39:02.032Z,0.80
2018-12-10T11:41:29.531Z,1.20
2018-12-10T11:43:56.976Z,0.80
2018-12-10T11:46:24.424Z,0.70
2018-12-10T11:48:51.883Z,0.70
2018-12-10T11:51:19.328Z,0.80
2018-12-10T11:53:46.737Z,0.60
2018-12-10T11:56:15.293Z,0.70
2018-12-10T11:58:43.089Z,0.70
2018-12-10T12:01:10.540Z,0.60
2018-12-10T12:03:38.069Z,0.77
2018-12-10T12:06:05.480Z,0.70
2018-12-10T12:08:33.403Z,1.00
2018-12-10T12:11:00.978Z,1.10
2018-12-10T12:13:28.480Z,1.27
2018-12-10T12:15:56.016Z,1.00
2018-12-10T12:18:23.420Z,1.00
2018-12-10T12:20:50.852Z,1.03
2018-12-10T12:23:18.265Z,1.00
2018-12-10T12:25:45.681Z,1.40
2018-12-10T12:28:13.115Z,1.20
2018-12-10T12:30:40.528Z,1.30
2018-12-10T12:33:07.980Z,1.30
2018-12-10T12:35:35.832Z,1.20
2018-12-10T12:38:03.260Z,1.53
2018-12-10T12:40:30.676Z,1.13
2018-12-10T12:42:58.160Z,1.67
2018-12-10T12:45:25.689Z,1.47
2018-12-10T12:47:55.691Z,1.20
2018-12-10T12:50:23.097Z,1.87
2018-12-10T12:52:50.586Z,1.30
2018-12-10T12:55:18.017Z,0.80
2018-12-10T12:57:45.427Z,1.10
2018-12-10T13:00:13.140Z,1.10
2018-12-10T13:02:40.559Z,1.20
2018-12-10T13:05:08.234Z,1.20
2018-12-10T13:07:36.308Z,1.33
2018-12-10T13:10:05.033Z,1.00
2018-12-10T13:12:32.449Z,1.00
2018-12-10T13:14:59.896Z,1.40
2018-12-10T13:17:27.319Z,1.27
2018-12-10T13:19:54.772Z,1.90
2018-12-10T13:22:22.221Z,1.43
2018-12-10T13:24:49.717Z,1.70
2018-12-10T13:27:17.188Z,1.50
2018-12-10T13:29:44.613Z,1.37
2018-12-10T13:32:12.090Z,1.60
2018-12-10T13:34:39.505Z,1.60
2018-12-10T13:37:06.925Z,2.17
2018-12-10T13:39:34.345Z,1.80
2018-12-10T13:42:02.007Z,1.77
2018-12-10T13:44:29.422Z,2.13
2018-12-10T13:46:56.915Z,1.70
2018-12-10T13:49:24.324Z,1.70
2018-12-10T13:51:51.917Z,1.77
2018-12-10T13:54:19.359Z,1.80
2018-12-10T13:56:46.772Z,1.60
2018-12-10T13:59:14.573Z,2.13
2018-12-10T14:01:42.073Z,2.00
2018-12-10T14:04:10.737Z,1.90
2018-12-10T14:06:38.224Z,2.27
2018-12-10T14:09:08.111Z,1.90
2018-12-10T14:11:35.905Z,1.80
2018-12-10T14:14:03.391Z,1.70
2018-12-10T14:16:30.862Z,1.63
2018-12-10T14:18:58.932Z,1.90
2018-12-10T14:21:26.423Z,1.53
2018-12-10T14:23:53.856Z,1.20
2018-12-10T14:26:21.700Z,1.43
2018-12-10T14:28:49.386Z,1.33
2018-12-10T14:31:16.777Z,1.60
2018-12-10T14:33:44.193Z,1.50
2018-12-10T14:36:12.204Z,1.87
2018-12-10T14:38:39.687Z,2.10
2018-12-10T14:41:07.624Z,1.53
2018-12-10T14:43:35.096Z,1.90
2018-12-10T14:46:02.600Z,1.97
2018-12-10T14:48:30.020Z,1.60
2018-12-10T14:50:57.564Z,1.67
2018-12-10T14:53:25.077Z,1.47
2018-12-10T14:55:52.490Z,1.63
2018-12-10T14:58:19.980Z,1.20
2018-12-10T15:00:47.406Z,1.20
2018-12-10T15:03:14.828Z,1.40
2018-12-10T15:05:42.369Z,1.10
2018-12-10T15:08:10.528Z,1.30
2018-12-10T15:10:37.952Z,1.37
2018-12-10T15:13:05.359Z,1.13
2018-12-10T15:15:32.826Z,1.07
2018-12-10T15:18:01.620Z,1.20
2018-12-10T15:20:29.445Z,1.00
2018-12-10T15:22:56.873Z,0.93
2018-12-10T15:25:24.301Z,0.93
2018-12-10T15:27:51.732Z,0.97
2018-12-10T15:30:19.140Z,1.27
2018-12-10T15:32:46.580Z,1.43
2018-12-10T15:35:14.016Z,1.37
2018-12-10T15:37:41.999Z,1.70
2018-12-10T15:40:11.900Z,1.30
2018-12-10T15:42:39.442Z,1.07
2018-12-10T15:45:06.957Z,1.50
2018-12-10T15:47:34.475Z,1.50
2018-12-10T15:50:01.938Z,1.87
2018-12-10T15:52:29.432Z,1.30
2018-12-10T15:54:56.845Z,1.40
2018-12-10T15:57:24.272Z,1.40
2018-12-10T15:59:51.687Z,1.40
2018-12-10T16:02:19.544Z,1.30
2018-12-10T16:04:46.956Z,1.20
2018-12-10T16:07:14.364Z,1.37
2018-12-10T16:09:42.777Z,1.30
2018-12-10T16:12:10.278Z,1.40
2018-12-10T16:14:37.745Z,1.30
2018-12-10T16:17:05.631Z,1.23
2018-12-10T16:19:33.063Z,1.43
2018-12-10T16:22:00.468Z,1.13
2018-12-10T16:24:27.891Z,1.63
2018-12-10T16:26:55.298Z,1.23
2018-12-10T16:29:22.748Z,1.30
2018-12-10T16:31:50.159Z,1.17
2018-12-10T16:34:17.567Z,0.97
2018-12-10T16:36:44.989Z,1.13
2018-12-10T16:39:12.672Z,1.50
2018-12-10T16:41:40.109Z,1.10
2018-12-10T16:44:07.912Z,1.40
2018-12-10T16:46:36.200Z,1.70
2018-12-10T16:49:03.656Z,1.50
2018-12-10T16:51:31.113Z,1.67
2018-12-10T16:53:58.644Z,1.40
2018-12-10T16:56:26.058Z,1.80
2018-12-10T16:58:53.909Z,1.60
2018-12-10T17:01:21.380Z,1.73
2018-12-10T17:03:48.824Z,1.80
2018-12-10T17:06:16.280Z,1.73
2018-12-10T17:08:43.688Z,1.63
2018-12-10T17:11:11.114Z,1.93
2018-12-10T17:13:38.517Z,2.07
2018-12-10T17:16:05.936Z,2.20
2018-12-10T17:18:33.355Z,2.13
2018-12-10T17:21:00.801Z,2.57
2018-12-10T17:23:28.240Z,2.00
2018-12-10T17:25:55.648Z,2.70
2018-12-10T17:28:23.492Z,2.37
2018-12-10T17:30:50.908Z,3.10
2018-12-10T17:33:18.912Z,2.70
2018-12-10T17:35:46.328Z,2.70
2018-12-10T17:38:13.956Z,3.00
2018-12-10T17:40:41.965Z,3.07
2018-12-10T17:43:09.368Z,3.20
2018-12-10T17:45:36.852Z,3.10
2018-12-10T17:48:05.076Z,3.00
2018-12-10T17:50:32.488Z,2.83
2018-12-10T17:52:59.938Z,2.73
2018-12-10T17:55:27.359Z,2.43
2018-12-10T17:57:55.296Z,2.60
2018-12-10T18:00:22.756Z,2.13
2018-12-10T18:02:50.205Z,2.40
2018-12-10T18:05:17.620Z,2.10
2018-12-10T18:07:46.241Z,2.80
2018-12-10T18:10:13.734Z,2.90
2018-12-10T18:12:41.140Z,3.57
2018-12-10T18:15:08.632Z,3.00
2018-12-10T18:17:36.048Z,3.33
2018-12-10T18:20:07.872Z,3.20
2018-12-10T18:22:35.420Z,3.20
2018-12-10T18:25:02.969Z,2.77
2018-12-10T18:27:33.156Z,3.20
2018-12-10T18:30:00.570Z,3.43
2018-12-10T18:32:27.985Z,3.87
2018-12-10T18:34:55.392Z,3.53
2018-12-10T18:37:22.829Z,3.17
2018-12-10T18:39:50.434Z,3.63
2018-12-10T18:42:17.853Z,3.17
2018-12-10T18:44:45.268Z,3.40
2018-12-10T18:47:12.730Z,3.40
2018-12-10T18:49:40.209Z,3.87
2018-12-10T18:52:07.615Z,3.10
2018-12-10T18:54:35.116Z,2.33
2018-12-10T18:57:02.564Z,2.60
2018-12-10T18:59:29.986Z,2.80
2018-12-10T19:01:57.396Z,2.37
2018-12-10T19:04:24.812Z,2.10
2018-12-10T19:06:52.232Z,2.27
2018-12-10T19:09:19.976Z,1.93
2018-12-10T19:11:47.404Z,2.10
2018-12-10T19:14:14.812Z,1.83
2018-12-10T19:16:42.268Z,1.70
2018-12-10T19:19:09.702Z,1.87
2018-12-10T19:21:37.151Z,2.10
2018-12-10T19:24:04.740Z,2.27
2018-12-10T19:26:32.169Z,3.63
2018-12-10T19:29:01.099Z,3.23
2018-12-10T19:31:28.592Z,2.10
2018-12-10T19:33:56.784Z,2.80
2018-12-10T19:36:24.336Z,4.10
2018-12-10T19:38:51.841Z,4.40
2018-12-10T19:41:19.328Z,2.43
2018-12-10T19:43:46.870Z,3.03
2018-12-10T19:46:14.297Z,5.13
2018-12-10T19:48:41.723Z,2.70
2018-12-10T19:51:09.380Z,2.43
2018-12-10T19:53:36.815Z,1.70
2018-12-10T19:56:04.261Z,2.00
2018-12-10T19:58:31.801Z,2.43
2018-12-10T20:00:59.823Z,3.53
2018-12-10T20:03:27.284Z,2.40
2018-12-10T20:06:00.446Z,2.27
2018-12-10T20:08:27.883Z,3.20
2018-12-10T20:10:55.372Z,3.60
2018-12-10T20:13:22.853Z,2.90
2018-12-10T20:15:50.290Z,2.70
2018-12-10T20:18:18.388Z,2.37
2018-12-10T20:20:45.804Z,2.20
2018-12-10T20:23:13.222Z,2.20
2018-12-10T20:25:40.728Z,3.03
2018-12-10T20:28:08.154Z,3.00
2018-12-10T20:30:35.640Z,2.30
2018-12-10T20:33:03.122Z,1.97
2018-12-10T20:35:30.599Z,2.77
2018-12-10T20:37:58.084Z,2.17
2018-12-10T20:40:25.493Z,2.17
2018-12-10T20:42:52.907Z,2.17
2018-12-10T20:45:20.320Z,2.00
2018-12-10T20:47:47.943Z,1.87
2018-12-10T20:50:15.431Z,2.13
2018-12-10T20:52:43.436Z,2.43
2018-12-10T20:55:10.852Z,2.43
2018-12-10T20:57:41.450Z,2.20
2018-12-10T21:00:07.846Z,2.80
2018-12-10T21:02:35.254Z,2.57
2018-12-10T21:05:02.868Z,2.90
2018-12-10T21:07:30.956Z,2.60
2018-12-10T21:09:58.367Z,3.10
2018-12-10T21:12:25.836Z,2.27
2018-12-10T21:14:53.242Z,2.53
2018-12-10T21:17:21.196Z,3.00
2018-12-10T21:19:48.676Z,3.07
2018-12-10T21:22:16.696Z,2.20
2018-12-10T21:24:44.118Z,2.20
2018-12-10T21:27:11.557Z,2.70
2018-12-10T21:29:39.466Z,2.83
2018-12-10T21:32:06.916Z,2.47
2018-12-10T21:34:34.328Z,2.67
2018-12-10T21:37:01.947Z,2.60
2018-12-10T21:39:29.356Z,2.87
2018-12-10T21:41:56.840Z,2.10
2018-12-10T21:44:24.368Z,3.00
2018-12-10T21:46:51.897Z,2.30
2018-12-10T21:49:19.376Z,2.80
2018-12-10T21:51:46.828Z,2.90
2018-12-10T21:54:14.260Z,2.60
2018-12-10T21:56:41.812Z,2.90
2018-12-10T21:59:09.745Z,2.60
2018-12-10T22:01:37.937Z,2.10
2018-12-10T22:04:05.966Z,2.00
2018-12-10T22:06:33.371Z,2.40
2018-12-10T22:09:01.008Z,2.07
2018-12-10T22:11:28.436Z,2.43
2018-12-10T22:13:56.395Z,2.00
2018-12-10T22:16:24.275Z,1.90
2018-12-10T22:18:51.707Z,2.07
2018-12-10T22:21:19.119Z,1.97
2018-12-10T22:23:47.000Z,2.17
2018-12-10T22:26:14.860Z,1.90
2018-12-10T22:28:42.272Z,1.87
2018-12-10T22:31:09.686Z,1.70
2018-12-10T22:33:37.183Z,2.10
2018-12-10T22:36:04.611Z,1.33
2018-12-10T22:38:33.939Z,1.60
2018-12-10T22:41:01.580Z,2.23
2018-12-10T22:43:29.244Z,1.60
2018-12-10T22:45:56.636Z,2.00
2018-12-10T22:48:24.052Z,1.60
2018-12-10T22:50:51.468Z,1.67
2018-12-10T22:53:19.324Z,1.40
2018-12-10T22:55:46.743Z,1.63
2018-12-10T22:58:14.677Z,1.33
2018-12-10T23:00:45.024Z,1.40
2018-12-10T23:03:12.564Z,1.60
2018-12-10T23:05:40.016Z,1.50
2018-12-10T23:08:07.435Z,1.80
2018-12-10T23:10:34.902Z,2.57
2018-12-10T23:13:02.932Z,1.43
2018-12-10T23:15:30.493Z,1.23
2018-12-10T23:17:57.968Z,1.80
2018-12-10T23:20:25.398Z,2.10
2018-12-10T23:22:53.220Z,1.27
2018-12-10T23:25:21.268Z,1.37
2018-12-10T23:27:49.312Z,1.73
2018-12-10T23:30:16.720Z,1.40
2018-12-10T23:32:44.140Z,1.60
2018-12-10T23:35:11.588Z,1.30
2018-12-10T23:37:39.473Z,2.03
2018-12-10T23:40:07.648Z,1.47
2018-12-10T23:42:35.100Z,1.33
2018-12-10T23:45:02.956Z,1.90
2018-12-10T23:47:31.136Z,1.77
2018-12-10T23:49:58.635Z,1.50
2018-12-10T23:52:26.048Z,2.23
2018-12-10T23:54:54.030Z,1.23
2018-12-10T23:57:21.875Z,1.30
2018-12-10T23:59:49.284Z,1.70
